Metabetchouan, Canada
Current Conditions -  °F | °C
As of 4:00 AM on Saturday 22 Nov 2014 (Local Time) from CYRJ Reporting Station
Light Snow Light Snow  
Wind Chill: -7°   Ceiling: 10000
Heat Index: 10°   Visibility: 20mi
Dew Point:   Wind: 17mph
Humidity: 73%   Direction: 210°SSW
Pressure: 30.01"   Gusts: 30mph
Location:  48.43°N, 71.87°W
Report Text: CYRJ 220900Z 21015G26KT 20SM -SN OVC100 M12/M16 A3001 RMK AC8 SLP176
Loading
Personal Weather Stations






























Interactive Weather Map New forecast layout! Learn more

10-Day Weather Forecast

Advertisements
Track Severe Weather on mobile